createdAt,value
2015-10-13T15:49:09.912Z,98214
2015-10-13T15:49:23.243Z,98208
2015-10-13T15:49:35.384Z,98209
2015-10-13T15:49:47.462Z,98203
2015-10-13T15:49:59.728Z,98203
2015-10-13T15:50:11.900Z,98209
2015-10-13T15:50:24.214Z,98206
2015-10-13T15:50:36.245Z,98206
2015-10-13T15:50:48.667Z,98200
2015-10-13T15:51:00.855Z,98206
2015-10-13T15:51:13.105Z,98215
2015-10-13T15:51:25.747Z,98206
2015-10-13T15:51:38.185Z,98212
2015-10-13T15:51:50.872Z,98201
2015-10-13T15:52:02.997Z,98206
2015-10-13T15:52:15.201Z,98203
2015-10-13T15:52:27.922Z,98206
2015-10-13T15:52:40.188Z,98209
2015-10-13T15:52:53.079Z,98209
2015-10-13T15:53:06.032Z,98209
2015-10-13T15:53:18.188Z,98215
2015-10-13T15:53:30.346Z,98209
2015-10-13T15:53:42.487Z,98209
2015-10-13T15:53:55.237Z,98201
2015-10-13T15:54:07.440Z,98206
2015-10-13T15:54:19.534Z,98215
2015-10-13T15:54:31.927Z,98209
2015-10-13T15:54:44.271Z,98206
2015-10-13T15:54:56.521Z,98212
2015-10-13T15:55:09.224Z,98212
2015-10-13T15:55:22.898Z,98215
2015-10-13T15:55:35.554Z,98215
2015-10-13T15:55:48.211Z,98212
2015-10-13T15:56:00.289Z,98215
2015-10-13T15:56:12.492Z,98215
2015-10-13T15:56:25.417Z,98220
2015-10-13T15:56:37.620Z,98215
2015-10-13T15:56:49.792Z,98209
2015-10-13T15:57:02.042Z,98214
2015-10-13T15:57:15.995Z,98212
2015-10-13T15:57:28.076Z,98209
2015-10-13T15:57:41.545Z,98214
2015-10-13T15:57:54.013Z,98214
2015-10-13T15:58:06.545Z,98209
2015-10-13T15:58:19.638Z,98226
2015-10-13T15:58:31.766Z,98209
2015-10-13T15:58:43.954Z,98217
2015-10-13T15:58:56.048Z,98217
2015-10-13T15:59:08.173Z,98223
2015-10-13T15:59:20.470Z,98226
2015-10-13T15:59:33.503Z,98214
2015-10-13T15:59:45.628Z,98220
2015-10-13T15:59:58.878Z,98211
2015-10-13T16:00:11.315Z,98211
2015-10-13T16:00:24.209Z,98220
2015-10-13T16:00:36.975Z,98220
2015-10-13T16:00:49.865Z,98217
2015-10-13T16:01:02.115Z,98211
2015-10-13T16:01:14.740Z,98214
2015-10-13T16:01:27.353Z,98214
2015-10-13T16:01:40.118Z,98209
2015-10-13T16:01:52.306Z,98209
2015-10-13T16:02:04.774Z,98206
2015-10-13T16:02:16.868Z,98217
2015-10-13T16:02:29.026Z,98211
2015-10-13T16:02:41.042Z,98208
2015-10-13T16:02:53.183Z,98209
2015-10-13T16:03:05.339Z,98211
2015-10-13T16:03:17.964Z,98214
2015-10-13T16:03:30.576Z,98214
2015-10-13T16:03:42.654Z,98211
2015-10-13T16:03:54.858Z,98214
2015-10-13T16:04:07.045Z,98211
2015-10-13T16:04:19.233Z,98206
2015-10-13T16:04:31.314Z,98214
2015-10-13T16:04:43.548Z,98220
2015-10-13T16:04:55.923Z,98208
2015-10-13T16:05:08.017Z,98206
2015-10-13T16:05:20.236Z,98208
2015-10-13T16:05:32.222Z,98208
2015-10-13T16:05:44.519Z,98217
2015-10-13T16:05:56.769Z,98211
2015-10-13T16:06:09.566Z,98211
2015-10-13T16:06:22.428Z,98217
2015-10-13T16:06:35.069Z,98220
2015-10-13T16:06:47.194Z,98220
2015-10-13T16:06:59.444Z,98217
2015-10-13T16:07:12.225Z,98220
2015-10-13T16:07:24.493Z,98222
2015-10-13T16:07:36.758Z,98228
2015-10-13T16:07:49.086Z,98225
2015-10-13T16:08:01.868Z,98228
2015-10-13T16:08:14.055Z,98228
2015-10-13T16:08:26.715Z,98220
2015-10-13T16:08:39.934Z,98225
2015-10-13T16:08:52.106Z,98228
2015-10-13T16:09:04.887Z,98225
2015-10-13T16:09:17.950Z,98225
2015-10-13T16:09:30.952Z,98225
2015-10-13T16:09:43.733Z,98234
2015-10-13T16:10:02.389Z,98237
2015-10-13T16:10:14.514Z,98220
2015-10-13T16:10:26.752Z,98225
2015-10-13T16:10:38.736Z,98231
2015-10-13T16:10:50.783Z,98228
2015-10-13T16:11:03.127Z,98228
2015-10-13T16:11:15.595Z,98231
2015-10-13T16:11:28.239Z,98220
2015-10-13T16:11:40.645Z,98228
2015-10-13T16:11:54.442Z,98228
2015-10-13T16:12:09.489Z,98223
2015-10-13T16:12:22.114Z,98220
2015-10-13T16:12:34.351Z,98225
2015-10-13T16:12:46.664Z,98228
2015-10-13T16:12:59.851Z,98234
2015-10-13T16:13:12.023Z,98231
2015-10-13T16:13:24.478Z,98228
2015-10-13T16:13:36.728Z,98228
2015-10-13T16:13:48.916Z,98228
2015-10-13T16:14:01.260Z,98234
2015-10-13T16:14:13.619Z,98231
2015-10-13T16:14:25.902Z,98231
2015-10-13T16:14:38.137Z,98237
2015-10-13T16:14:50.465Z,98234
2015-10-13T16:15:06.090Z,98242
2015-10-13T16:15:18.543Z,98251
2015-10-13T16:15:32.093Z,98242
2015-10-13T16:15:44.515Z,98234
2015-10-13T16:16:01.218Z,98236
2015-10-13T16:16:13.905Z,98239
2015-10-13T16:16:26.503Z,98242
2015-10-13T16:16:38.644Z,98234
2015-10-13T16:16:54.940Z,98236
2015-10-13T16:17:08.300Z,98236
2015-10-13T16:17:20.581Z,98242
2015-10-13T16:17:33.770Z,98248
2015-10-13T16:17:46.316Z,98245
2015-10-13T16:17:58.926Z,98242
2015-10-13T16:18:19.551Z,98242
2015-10-13T16:18:31.836Z,98242
2015-10-13T16:18:44.586Z,98248
2015-10-13T16:18:56.633Z,98242
2015-10-13T16:19:08.774Z,98239
2015-10-13T16:19:21.008Z,98239
2015-10-13T16:19:34.416Z,98251
2015-10-13T16:19:47.260Z,98256
2015-10-13T16:20:00.635Z,98250
2015-10-13T16:20:13.510Z,98259
2015-10-13T16:20:25.713Z,98242
2015-10-13T16:20:38.122Z,98250
2015-10-13T16:20:51.310Z,98250
2015-10-13T16:21:03.919Z,98248
2015-10-13T16:21:16.825Z,98253
2015-10-13T16:21:29.547Z,98253
2015-10-13T16:21:42.750Z,98256
2015-10-13T16:21:55.485Z,98253
2015-10-13T16:22:08.110Z,98265
2015-10-13T16:22:20.313Z,98267
2015-10-13T16:22:32.550Z,98253
2015-10-13T16:22:44.753Z,98245
2015-10-13T16:22:56.956Z,98253
2015-10-13T16:23:09.878Z,98259
2015-10-13T16:23:22.144Z,98259
2015-10-13T16:23:34.927Z,98256
2015-10-13T16:23:47.646Z,98256
2015-10-13T16:24:00.162Z,98251
2015-10-13T16:24:12.552Z,98262
2015-10-13T16:24:25.208Z,98262
2015-10-13T16:24:37.540Z,98254
2015-10-13T16:24:50.243Z,98254
2015-10-13T16:25:02.524Z,98270
2015-10-13T16:25:15.352Z,98259
2015-10-13T16:25:28.104Z,98253
2015-10-13T16:25:40.542Z,98259
2015-10-13T16:25:53.698Z,98256
2015-10-13T16:26:08.963Z,98265
2015-10-13T16:26:21.229Z,98256
2015-10-13T16:26:33.561Z,98259
2015-10-13T16:26:45.889Z,98262
2015-10-13T16:26:58.717Z,98259
2015-10-13T16:27:11.546Z,98262
2015-10-13T16:27:25.374Z,98259
2015-10-13T16:27:38.438Z,98268
2015-10-13T16:27:51.532Z,98268
2015-10-13T16:28:03.751Z,98251
2015-10-13T16:28:16.469Z,98256
2015-10-13T16:28:28.737Z,98253
2015-10-13T16:28:41.112Z,98248
2015-10-13T16:28:53.175Z,98256
2015-10-13T16:29:05.503Z,98259
2015-10-13T16:29:18.128Z,98256
2015-10-13T16:29:30.490Z,98259
2015-10-13T16:29:42.771Z,98268
2015-10-13T16:29:55.099Z,98268
2015-10-13T16:30:07.396Z,98265
2015-10-13T16:30:19.490Z,98265
2015-10-13T16:30:31.805Z,98265
2015-10-13T16:30:44.070Z,98273
2015-10-13T16:30:56.492Z,98262
2015-10-13T16:31:08.898Z,98271
2015-10-13T16:31:21.180Z,98270
2015-10-13T16:31:33.433Z,98265
2015-10-13T16:31:46.026Z,98265
2015-10-13T16:31:58.886Z,98265
2015-10-13T16:32:11.183Z,98265
2015-10-13T16:32:23.386Z,98271
2015-10-13T16:32:35.967Z,98265
2015-10-13T16:32:48.623Z,98268
2015-10-13T16:33:00.732Z,98268
2015-10-13T16:33:12.764Z,98265
2015-10-13T16:33:25.357Z,98265
2015-10-13T16:33:37.829Z,98278
2015-10-13T16:33:50.376Z,98284
2015-10-13T16:34:02.532Z,98278
2015-10-13T16:34:14.595Z,98274
2015-10-13T16:34:26.704Z,98265
2015-10-13T16:34:39.519Z,98278
2015-10-13T16:34:52.237Z,98278
2015-10-13T16:35:06.019Z,98278
2015-10-13T16:35:18.144Z,98265
2015-10-13T16:35:30.897Z,98273
2015-10-13T16:35:42.912Z,98278
2015-10-13T16:35:55.350Z,98271
2015-10-13T16:36:07.819Z,98281
2015-10-13T16:36:20.022Z,98268
2015-10-13T16:36:39.228Z,98270
2015-10-13T16:36:52.868Z,98278
2015-10-13T16:37:12.337Z,98284
2015-10-13T16:37:25.197Z,98286
2015-10-13T16:37:37.356Z,98270
2015-10-13T16:37:49.418Z,98281
2015-10-13T16:38:01.840Z,98284
2015-10-13T16:38:14.325Z,98278
2015-10-13T16:38:27.340Z,98273
2015-10-13T16:38:39.578Z,98267
2015-10-13T16:38:52.921Z,98270
2015-10-13T16:39:05.109Z,98270
2015-10-13T16:39:17.546Z,98270
2015-10-13T16:39:29.687Z,98278
2015-10-13T16:39:41.611Z,98281
2015-10-13T16:39:53.783Z,98270
2015-10-13T16:40:06.283Z,98281
2015-10-13T16:40:18.298Z,98273
2015-10-13T16:40:31.033Z,98268
2015-10-13T16:40:43.254Z,98273
2015-10-13T16:40:55.473Z,98273
2015-10-13T16:41:14.051Z,98273
2015-10-13T16:41:26.161Z,98281
2015-10-13T16:41:39.163Z,98278
2015-10-13T16:41:55.866Z,98281
2015-10-13T16:42:08.116Z,98273
2015-10-13T16:42:20.788Z,98273
2015-10-13T16:42:33.369Z,98278
2015-10-13T16:42:46.603Z,98268
2015-10-13T16:42:58.744Z,98278
2015-10-13T16:43:10.822Z,98287
2015-10-13T16:43:22.994Z,98284
2015-10-13T16:43:35.075Z,98278
2015-10-13T16:43:47.434Z,98281
2015-10-13T16:44:00.747Z,98287
2015-10-13T16:44:12.856Z,98273
2015-10-13T16:44:24.997Z,98281
2015-10-13T16:44:44.468Z,98289
2015-10-13T16:44:56.858Z,98278
2015-10-13T16:45:10.061Z,98278
2015-10-13T16:45:22.374Z,98284
2015-10-13T16:45:35.033Z,98284
2015-10-13T16:45:47.127Z,98284
2015-10-13T16:46:00.096Z,98284
2015-10-13T16:46:12.346Z,98281
2015-10-13T16:46:24.799Z,98287
2015-10-13T16:46:37.067Z,98287
2015-10-13T16:46:49.192Z,98289
2015-10-13T16:47:05.567Z,98284
2015-10-13T16:47:17.677Z,98287
2015-10-13T16:47:29.802Z,98284
2015-10-13T16:47:42.242Z,98289
2015-10-13T16:47:54.320Z,98295
2015-10-13T16:48:06.711Z,98289
2015-10-13T16:48:19.852Z,98295
2015-10-13T16:48:32.070Z,98284
2015-10-13T16:48:44.776Z,98292
2015-10-13T16:48:56.855Z,98287
2015-10-13T16:49:08.933Z,98289
2015-10-13T16:49:21.120Z,98289
2015-10-13T16:49:33.511Z,98287
2015-10-13T16:49:46.169Z,98295
2015-10-13T16:49:59.607Z,98301
2015-10-13T16:50:11.763Z,98278
2015-10-13T16:50:23.919Z,98292
2015-10-13T16:50:36.078Z,98289
2015-10-13T16:50:48.281Z,98298
2015-10-13T16:51:01.781Z,98287
2015-10-13T16:51:14.438Z,98286
2015-10-13T16:51:27.250Z,98292
2015-10-13T16:51:39.738Z,98295
2015-10-13T16:51:52.128Z,98295
2015-10-13T16:52:04.597Z,98301
2015-10-13T16:52:17.019Z,98287
2015-10-13T16:52:29.050Z,98289
2015-10-13T16:52:41.224Z,98281
2015-10-13T16:52:53.365Z,98289
2015-10-13T16:53:05.365Z,98295
2015-10-13T16:53:18.505Z,98290
2015-10-13T16:53:31.849Z,98287
2015-10-13T16:53:47.024Z,98287
2015-10-13T16:54:00.258Z,98281
2015-10-13T16:54:13.461Z,98289
2015-10-13T16:54:25.602Z,98278
2015-10-13T16:54:39.621Z,98284
2015-10-13T16:54:51.652Z,98284
2015-10-13T16:55:04.402Z,98284
2015-10-13T16:55:17.511Z,98287
2015-10-13T16:55:29.996Z,98289
2015-10-13T16:55:42.169Z,98284
2015-10-13T16:55:54.841Z,98284
2015-10-13T16:56:07.154Z,98289
2015-10-13T16:56:19.482Z,98287
2015-10-13T16:56:32.716Z,98284
2015-10-13T16:56:45.016Z,98289
2015-10-13T16:56:59.329Z,98284
2015-10-13T16:57:11.407Z,98284
2015-10-13T16:57:24.126Z,98281
2015-10-13T16:57:36.238Z,98281
2015-10-13T16:57:48.363Z,98278
2015-10-13T16:58:00.535Z,98286
2015-10-13T16:58:12.754Z,98292
2015-10-13T16:58:24.847Z,98283
2015-10-13T16:58:37.632Z,98281
2015-10-13T16:58:49.944Z,98292
2015-10-13T16:59:02.194Z,98286
2015-10-13T16:59:17.397Z,98289
2015-10-13T16:59:29.475Z,98292
2015-10-13T16:59:41.727Z,98289
2015-10-13T16:59:54.852Z,98289
2015-10-13T17:00:07.571Z,98289
2015-10-13T17:00:19.759Z,98292
2015-10-13T17:00:32.009Z,98289
2015-10-13T17:00:44.418Z,98292
2015-10-13T17:00:56.918Z,98295
2015-10-13T17:01:09.808Z,98292
2015-10-13T17:01:22.855Z,98301
2015-10-13T17:01:35.310Z,98301
2015-10-13T17:01:48.264Z,98303
2015-10-13T17:02:00.654Z,98303
2015-10-13T17:02:13.451Z,98309
2015-10-13T17:02:26.092Z,98298
2015-10-13T17:02:38.907Z,98304
2015-10-13T17:02:51.438Z,98292
2015-10-13T17:03:04.142Z,98301
2015-10-13T17:03:16.563Z,98295
2015-10-13T17:03:29.485Z,98292
2015-10-13T17:03:42.535Z,98295
2015-10-13T17:03:55.848Z,98295
2015-10-13T17:04:09.379Z,98298
2015-10-13T17:04:21.738Z,98304
2015-10-13T17:04:35.176Z,98298
2015-10-13T17:04:48.038Z,98295
2015-10-13T17:05:01.273Z,98301
2015-10-13T17:05:13.929Z,98298
2015-10-13T17:05:26.257Z,98298
2015-10-13T17:05:38.634Z,98303
2015-10-13T17:05:52.087Z,98298
2015-10-13T17:06:05.431Z,98298
2015-10-13T17:06:17.853Z,98295
2015-10-13T17:06:30.665Z,98292
2015-10-13T17:06:43.497Z,98286
2015-10-13T17:06:56.232Z,98298
2015-10-13T17:07:08.560Z,98292
2015-10-13T17:07:23.622Z,98292
2015-10-13T17:07:36.294Z,98295
2015-10-13T17:07:49.280Z,98295
2015-10-13T17:08:01.623Z,98292
2015-10-13T17:08:15.295Z,98281
2015-10-13T17:08:27.873Z,98291
2015-10-13T17:08:40.579Z,98279
2015-10-13T17:08:52.767Z,98283
2015-10-13T17:09:04.908Z,98284
2015-10-13T17:09:17.579Z,98275
